Time;durP1;ratioP1;P1;durP2;ratioP2;P2;SDS_P1;SDS_P2;PMS_P1;PMS_P2;Temp;Humidity;BMP_temperature;BMP_pressure;BME280_temperature;BME280_humidity;BME280_pressure;Samples;Min_cycle;Max_cycle;Signal;HPM_P1;HPM_P2
2022/04/12 00:00:02;;;;;;;2.83;1.73;;;;;;;;;;5011159;28;20225;-77
2022/04/12 00:02:41;;;;;;;5.53;1.87;;;;;;;;;;5007513;28;20256;-78
2022/04/12 00:05:07;;;;;;;3.53;2.00;;;;;;;;;;4985154;28;20379;-77
2022/04/12 00:07:35;;;;;;;4.17;2.07;;;;;;;;;;5010898;28;20225;-78
2022/04/12 00:10:01;;;;;;;5.60;2.10;;;;;;;;;;5011113;28;20702;-78
2022/04/12 00:12:29;;;;;;;2.67;1.97;;;;;;;;;;4991413;28;20221;-78
2022/04/12 00:14:57;;;;;;;3.57;1.60;;;;;;;;;;5013776;28;20225;-77
2022/04/12 00:20:16;;;;;;;2.60;1.90;;;;;;;;;;5011863;28;20298;-78
2022/04/12 00:22:42;;;;;;;2.93;1.97;;;;;;;;;;4999992;28;20225;-78
2022/04/12 00:25:10;;;;;;;5.40;1.93;;;;;;;;;;4994953;28;20251;-78
2022/04/12 00:27:40;;;;;;;2.27;1.70;;;;;;;;;;5018713;28;20221;-77
2022/04/12 00:30:09;;;;;;;5.03;1.90;;;;;;;;;;4999365;28;20252;-76
2022/04/12 00:32:34;;;;;;;3.73;1.93;;;;;;;;;;5022685;28;20289;-76
2022/04/12 00:35:00;;;;;;;4.60;2.07;;;;;;;;;;5017151;28;20275;-75
2022/04/12 00:37:26;;;;;;;3.77;1.90;;;;;;;;;;5033890;28;20295;-77
2022/04/12 00:39:54;;;;;;;4.30;1.97;;;;;;;;;;5007990;28;20220;-76
2022/04/12 00:42:20;;;;;;;4.90;2.07;;;;;;;;;;5004080;28;20221;-77
2022/04/12 00:44:45;;;;;;;4.83;2.10;;;;;;;;;;5004575;28;20212;-77
2022/04/12 00:47:15;;;;;;;3.40;2.10;;;;;;;;;;5009557;28;20241;-77
2022/04/12 00:49:41;;;;;;;3.87;2.20;;;;;;;;;;4998883;28;20284;-76
2022/04/12 00:52:06;;;;;;;4.90;2.20;;;;;;;;;;4996399;28;20212;-76
2022/04/12 00:54:36;;;;;;;3.27;2.20;;;;;;;;;;4995601;28;20249;-77
2022/04/12 00:57:04;;;;;;;4.07;2.17;;;;;;;;;;4999298;28;20312;-77
2022/04/12 00:59:32;;;;;;;4.67;2.10;;;;;;;;;;5019488;28;20221;-77
2022/04/12 01:01:57;;;;;;;2.43;2.20;;;;;;;;;;4995047;28;20229;-77
2022/04/12 01:04:23;;;;;;;3.70;2.20;;;;;;;;;;4996618;28;20233;-77
2022/04/12 01:06:51;;;;;;;3.67;2.07;;;;;;;;;;5002355;28;20296;-78
2022/04/12 01:09:18;;;;;;;5.03;2.20;;;;;;;;;;4982978;28;20300;-77
2022/04/12 01:11:48;;;;;;;4.03;2.60;;;;;;;;;;4982445;28;20220;-78
2022/04/12 01:14:16;;;;;;;3.90;2.17;;;;;;;;;;5006062;28;20221;-77
2022/04/12 01:16:42;;;;;;;4.73;2.40;;;;;;;;;;5011404;28;20220;-77
2022/04/12 01:19:07;;;;;;;3.43;2.20;;;;;;;;;;5021403;28;20255;-78
2022/04/12 01:21:42;;;;;;;4.90;2.40;;;;;;;;;;5027973;28;20217;-78
2022/04/12 01:24:08;;;;;;;6.73;2.60;;;;;;;;;;4988483;28;20324;-77
2022/04/12 01:26:35;;;;;;;4.23;2.67;;;;;;;;;;5025014;28;20217;-78
2022/04/12 01:29:01;;;;;;;3.53;2.47;;;;;;;;;;4997934;28;20331;-78
2022/04/12 01:31:26;;;;;;;2.97;2.37;;;;;;;;;;5013130;28;20220;-77
2022/04/12 01:33:56;;;;;;;5.33;2.50;;;;;;;;;;4972632;28;20699;-78
2022/04/12 01:36:22;;;;;;;4.17;2.70;;;;;;;;;;4995030;28;20223;-77
2022/04/12 01:38:47;;;;;;;4.27;2.60;;;;;;;;;;5001781;28;20694;-77
2022/04/12 01:41:13;;;;;;;3.77;2.60;;;;;;;;;;5004584;28;20305;-78
2022/04/12 01:43:41;;;;;;;4.97;2.97;;;;;;;;;;5006117;28;20228;-76
2022/04/12 01:46:06;;;;;;;6.73;2.70;;;;;;;;;;5012214;28;20673;-76
2022/04/12 01:48:34;;;;;;;6.70;3.00;;;;;;;;;;5020694;28;20237;-78
2022/04/12 01:50:59;;;;;;;5.37;2.83;;;;;;;;;;5017618;28;20276;-77
2022/04/12 01:53:29;;;;;;;8.00;3.03;;;;;;;;;;5004893;28;20248;-77
2022/04/12 01:55:55;;;;;;;4.63;3.10;;;;;;;;;;4993403;28;20216;-78
2022/04/12 01:58:25;;;;;;;4.97;2.80;;;;;;;;;;5005955;28;20244;-76
2022/04/12 02:00:52;;;;;;;4.23;2.70;;;;;;;;;;5011957;28;20221;-77
2022/04/12 02:03:18;;;;;;;4.30;2.97;;;;;;;;;;4994068;28;20225;-76
2022/04/12 02:05:43;;;;;;;5.77;3.00;;;;;;;;;;5009632;28;20222;-77
2022/04/12 02:08:09;;;;;;;3.43;2.83;;;;;;;;;;5012330;28;20673;-77
2022/04/12 02:10:37;;;;;;;5.33;3.30;;;;;;;;;;4974796;28;20237;-77
2022/04/12 02:13:07;;;;;;;4.60;2.93;;;;;;;;;;4993820;28;20274;-77
2022/04/12 02:15:33;;;;;;;5.87;3.17;;;;;;;;;;4978105;28;20216;-77
2022/04/12 02:17:59;;;;;;;5.07;3.33;;;;;;;;;;5000192;28;20220;-78
2022/04/12 02:20:27;;;;;;;4.60;3.13;;;;;;;;;;4989533;28;20212;-78
2022/04/12 02:22:53;;;;;;;4.87;3.27;;;;;;;;;;5009206;28;20304;-77
2022/04/12 02:25:25;;;;;;;6.03;3.33;;;;;;;;;;4970126;28;20282;-77
2022/04/12 02:27:53;;;;;;;4.27;3.40;;;;;;;;;;5014525;28;20248;-77
2022/04/12 02:30:18;;;;;;;4.83;3.23;;;;;;;;;;5008623;28;20224;-77
2022/04/12 02:32:44;;;;;;;7.80;3.40;;;;;;;;;;5005651;28;20713;-77
2022/04/12 02:35:09;;;;;;;4.70;3.60;;;;;;;;;;5000581;28;20324;-77
2022/04/12 02:37:37;;;;;;;6.17;3.70;;;;;;;;;;4996825;28;20226;-77
2022/04/12 02:40:08;;;;;;;4.27;3.40;;;;;;;;;;4991306;28;20221;-77
2022/04/12 02:42:34;;;;;;;5.00;3.70;;;;;;;;;;4978640;28;20253;-77
2022/04/12 02:44:59;;;;;;;4.13;3.40;;;;;;;;;;5014042;28;20308;-77
2022/04/12 02:47:28;;;;;;;5.17;3.23;;;;;;;;;;5012072;28;20231;-76
2022/04/12 02:49:56;;;;;;;6.10;3.40;;;;;;;;;;4989727;28;20983;-77
2022/04/12 02:52:26;;;;;;;5.17;3.23;;;;;;;;;;5008833;28;20711;-77
2022/04/12 02:54:51;;;;;;;7.07;3.50;;;;;;;;;;5007221;28;20709;-77
2022/04/12 02:57:21;;;;;;;6.33;3.80;;;;;;;;;;5007732;28;20252;-77
2022/04/12 02:59:47;;;;;;;5.60;3.30;;;;;;;;;;5015171;28;20225;-77
2022/04/12 03:02:15;;;;;;;5.50;3.60;;;;;;;;;;5003201;28;20212;-78
2022/04/12 03:04:40;;;;;;;5.27;3.23;;;;;;;;;;5004538;28;20277;-78
2022/04/12 03:07:06;;;;;;;5.20;3.70;;;;;;;;;;4988200;28;20248;-76
2022/04/12 03:09:35;;;;;;;4.53;3.40;;;;;;;;;;4969786;28;20304;-78
2022/04/12 03:12:00;;;;;;;5.43;3.47;;;;;;;;;;4986122;28;20307;-77
2022/04/12 03:14:25;;;;;;;5.40;3.67;;;;;;;;;;5012144;28;20240;-78
2022/04/12 03:16:51;;;;;;;7.37;4.10;;;;;;;;;;4995885;28;20275;-78
2022/04/12 03:19:21;;;;;;;5.47;3.50;;;;;;;;;;5025461;28;20248;-78
2022/04/12 03:21:46;;;;;;;9.27;4.20;;;;;;;;;;5010058;28;20217;-77
2022/04/12 03:24:14;;;;;;;5.27;3.77;;;;;;;;;;5008516;28;20219;-79
2022/04/12 03:26:40;;;;;;;5.90;4.00;;;;;;;;;;5005866;28;20213;-77
2022/04/12 03:29:07;;;;;;;6.43;3.97;;;;;;;;;;4994857;28;20712;-77
2022/04/12 03:31:32;;;;;;;8.83;4.00;;;;;;;;;;4993748;28;20345;-78
2022/04/12 03:33:58;;;;;;;5.17;3.73;;;;;;;;;;5005789;28;20217;-77
2022/04/12 03:36:23;;;;;;;6.87;4.10;;;;;;;;;;5010223;28;20297;-78
2022/04/12 03:38:49;;;;;;;5.40;3.80;;;;;;;;;;5003910;28;20326;-77
2022/04/12 03:41:18;;;;;;;4.60;3.57;;;;;;;;;;5002739;28;20307;-78
2022/04/12 03:43:48;;;;;;;6.43;4.10;;;;;;;;;;5003652;28;20777;-78
2022/04/12 03:46:14;;;;;;;5.27;3.90;;;;;;;;;;5003620;28;20223;-76
2022/04/12 03:48:40;;;;;;;5.17;3.80;;;;;;;;;;4994370;28;20220;-76
2022/04/12 03:51:08;;;;;;;5.33;4.37;;;;;;;;;;4996287;28;20833;-76
2022/04/12 03:53:33;;;;;;;4.47;4.07;;;;;;;;;;5013630;28;20312;-76
2022/04/12 03:55:59;;;;;;;4.80;3.67;;;;;;;;;;4985351;28;20779;-77
2022/04/12 03:58:28;;;;;;;7.63;4.00;;;;;;;;;;5000279;28;20228;-77
2022/04/12 04:00:54;;;;;;;6.87;3.67;;;;;;;;;;4990600;28;20597;-77
2022/04/12 04:03:22;;;;;;;6.53;3.63;;;;;;;;;;5004510;28;20225;-76
2022/04/12 04:05:48;;;;;;;5.73;3.40;;;;;;;;;;5006160;28;20664;-77
2022/04/12 04:08:13;;;;;;;5.67;3.50;;;;;;;;;;5020079;28;20224;-77
2022/04/12 04:10:39;;;;;;;5.57;3.73;;;;;;;;;;5002413;28;20232;-76
2022/04/12 04:13:11;;;;;;;5.57;4.03;;;;;;;;;;4988554;28;20213;-76
2022/04/12 04:15:36;;;;;;;5.53;3.80;;;;;;;;;;5009046;28;20714;-77
2022/04/12 04:18:02;;;;;;;6.87;3.93;;;;;;;;;;4998320;28;20249;-76
2022/04/12 04:20:29;;;;;;;5.03;3.67;;;;;;;;;;5018163;28;20225;-76
2022/04/12 04:22:55;;;;;;;4.37;3.80;;;;;;;;;;5010246;28;20264;-76
2022/04/12 04:25:20;;;;;;;5.67;3.80;;;;;;;;;;5012593;28;20296;-75
2022/04/12 04:27:49;;;;;;;6.40;3.87;;;;;;;;;;5009135;28;20228;-76
2022/04/12 04:30:15;;;;;;;6.33;3.77;;;;;;;;;;4973223;28;20295;-77
2022/04/12 04:32:45;;;;;;;6.27;4.03;;;;;;;;;;4997307;28;20754;-77
2022/04/12 04:35:11;;;;;;;5.07;3.83;;;;;;;;;;4996121;28;20220;-77
2022/04/12 04:37:46;;;;;;;5.63;3.67;;;;;;;;;;4996254;28;20655;-76
2022/04/12 04:40:15;;;;;;;5.37;3.67;;;;;;;;;;5026460;28;20228;-77
2022/04/12 04:42:42;;;;;;;7.50;3.50;;;;;;;;;;5021968;28;20225;-77
2022/04/12 04:45:11;;;;;;;5.17;3.70;;;;;;;;;;5007510;28;20232;-76
2022/04/12 04:47:53;;;;;;;5.43;4.03;;;;;;;;;;5015144;28;20229;-76
2022/04/12 04:50:19;;;;;;;4.57;3.40;;;;;;;;;;5010853;28;20228;-76
2022/04/12 04:52:47;;;;;;;4.07;3.60;;;;;;;;;;5002899;28;20221;-77
2022/04/12 04:55:13;;;;;;;6.00;4.00;;;;;;;;;;4965630;28;20271;-76
2022/04/12 04:57:42;;;;;;;6.57;4.00;;;;;;;;;;4980204;28;20226;-76
2022/04/12 05:00:08;;;;;;;4.83;3.60;;;;;;;;;;4996414;28;20225;-76
2022/04/12 05:02:34;;;;;;;5.97;3.77;;;;;;;;;;5006401;28;20236;-78
2022/04/12 05:05:01;;;;;;;6.33;3.97;;;;;;;;;;5026121;28;20217;-76
2022/04/12 05:07:26;;;;;;;4.70;3.50;;;;;;;;;;5013573;28;20220;-78
2022/04/12 05:09:52;;;;;;;5.67;3.90;;;;;;;;;;5004263;28;20220;-77
2022/04/12 05:12:20;;;;;;;5.47;3.80;;;;;;;;;;5014073;28;20300;-77
2022/04/12 05:14:46;;;;;;;4.47;3.63;;;;;;;;;;5012808;28;20213;-77
2022/04/12 05:17:11;;;;;;;4.40;3.60;;;;;;;;;;4992799;28;20298;-77
2022/04/12 05:19:39;;;;;;;5.73;3.40;;;;;;;;;;5002188;28;20316;-77
2022/04/12 05:22:07;;;;;;;4.63;3.67;;;;;;;;;;5002785;28;20225;-76
2022/04/12 05:24:33;;;;;;;4.77;3.60;;;;;;;;;;4997501;28;20224;-76
2022/04/12 05:26:58;;;;;;;5.43;4.10;;;;;;;;;;5014431;28;20311;-76
2022/04/12 05:29:26;;;;;;;5.70;3.93;;;;;;;;;;4994427;28;20217;-77
2022/04/12 05:31:51;;;;;;;4.53;3.50;;;;;;;;;;4993950;28;20266;-77
2022/04/12 05:34:19;;;;;;;5.80;4.13;;;;;;;;;;4993488;28;20683;-76
2022/04/12 05:36:44;;;;;;;4.10;3.60;;;;;;;;;;4995296;28;20228;-76
2022/04/12 05:39:13;;;;;;;4.80;3.67;;;;;;;;;;4993835;28;20225;-77
2022/04/12 05:41:38;;;;;;;4.67;3.60;;;;;;;;;;5004965;28;20263;-77
2022/04/12 05:44:04;;;;;;;4.70;3.87;;;;;;;;;;4977429;28;20308;-77
2022/04/12 05:46:30;;;;;;;5.97;3.53;;;;;;;;;;5004558;28;20232;-78
2022/04/12 05:48:55;;;;;;;4.30;3.80;;;;;;;;;;4996243;28;20652;-77
2022/04/12 05:51:23;;;;;;;4.87;3.47;;;;;;;;;;4985679;28;20229;-77
2022/04/12 05:53:54;;;;;;;4.80;3.80;;;;;;;;;;5004268;28;20232;-79
2022/04/12 05:56:19;;;;;;;6.13;3.60;;;;;;;;;;4983361;28;20232;-77
2022/04/12 05:58:56;;;;;;;5.37;3.80;;;;;;;;;;5014577;28;20228;-77
2022/04/12 06:01:27;;;;;;;6.47;3.53;;;;;;;;;;4982425;28;20248;-77
2022/04/12 06:03:53;;;;;;;4.47;3.40;;;;;;;;;;4980007;28;20607;-76
2022/04/12 06:06:20;;;;;;;4.03;3.50;;;;;;;;;;5012195;28;20885;-78
2022/04/12 06:08:48;;;;;;;5.43;3.73;;;;;;;;;;4997033;28;20216;-76
2022/04/12 06:11:16;;;;;;;4.50;3.60;;;;;;;;;;4992863;28;20331;-77
2022/04/12 06:13:44;;;;;;;3.87;3.57;;;;;;;;;;5003889;28;20221;-76
2022/04/12 06:16:09;;;;;;;3.90;3.50;;;;;;;;;;4976056;28;20275;-76
2022/04/12 06:18:37;;;;;;;4.70;3.33;;;;;;;;;;5003129;28;20248;-77
2022/04/12 06:21:03;;;;;;;4.47;3.37;;;;;;;;;;5005378;28;20251;-76
2022/04/12 06:23:28;;;;;;;4.27;3.17;;;;;;;;;;4971979;28;20236;-77
2022/04/12 06:25:57;;;;;;;3.47;3.07;;;;;;;;;;5005364;28;20213;-77
2022/04/12 06:28:25;;;;;;;3.87;3.37;;;;;;;;;;4979327;28;20382;-75
2022/04/12 06:30:51;;;;;;;4.63;3.40;;;;;;;;;;5012669;28;20216;-76
2022/04/12 06:33:19;;;;;;;4.10;3.30;;;;;;;;;;5011697;28;20257;-76
2022/04/12 06:35:47;;;;;;;4.60;3.30;;;;;;;;;;5020642;28;20311;-76
2022/04/12 06:38:18;;;;;;;4.40;3.13;;;;;;;;;;4993759;28;20889;-75
2022/04/12 06:40:44;;;;;;;5.43;3.33;;;;;;;;;;5008715;28;20279;-76
2022/04/12 06:43:12;;;;;;;4.07;3.10;;;;;;;;;;4996200;28;20311;-76
2022/04/12 06:45:38;;;;;;;4.03;2.90;;;;;;;;;;4978856;28;20698;-75
2022/04/12 06:48:04;;;;;;;5.43;3.10;;;;;;;;;;5001556;28;20738;-75
2022/04/12 06:50:30;;;;;;;4.53;3.00;;;;;;;;;;4992574;28;20225;-75
2022/04/12 06:52:58;;;;;;;4.93;3.00;;;;;;;;;;4992156;28;20220;-76
2022/04/12 06:55:23;;;;;;;4.83;3.20;;;;;;;;;;5003275;28;20220;-75
2022/04/12 06:57:51;;;;;;;4.93;2.90;;;;;;;;;;5002378;28;20288;-76
2022/04/12 07:00:17;;;;;;;4.83;3.10;;;;;;;;;;4975576;28;20350;-75
2022/04/12 07:02:44;;;;;;;5.17;3.13;;;;;;;;;;4995908;28;20680;-76
2022/04/12 07:05:09;;;;;;;3.57;2.90;;;;;;;;;;5001475;28;20244;-78
2022/04/12 07:07:38;;;;;;;4.00;3.00;;;;;;;;;;4989165;28;20228;-78
2022/04/12 07:10:07;;;;;;;4.27;2.93;;;;;;;;;;5004183;28;20224;-77
2022/04/12 07:12:33;;;;;;;4.00;2.93;;;;;;;;;;4994014;28;20252;-75
2022/04/12 07:14:58;;;;;;;3.30;3.00;;;;;;;;;;4996949;28;20225;-76
2022/04/12 07:17:24;;;;;;;3.17;2.83;;;;;;;;;;4994906;28;20225;-77
2022/04/12 07:19:52;;;;;;;4.13;2.50;;;;;;;;;;5003350;28;20364;-77
2022/04/12 07:22:17;;;;;;;4.17;2.70;;;;;;;;;;5012663;28;20230;-78
2022/04/12 07:24:45;;;;;;;4.87;2.77;;;;;;;;;;5020538;28;20224;-78
2022/04/12 07:27:14;;;;;;;4.23;2.70;;;;;;;;;;4992591;28;20280;-76
2022/04/12 07:29:39;;;;;;;4.70;2.80;;;;;;;;;;5006306;28;20301;-76
2022/04/12 07:32:10;;;;;;;5.50;2.80;;;;;;;;;;5019994;28;20216;-76
2022/04/12 07:34:38;;;;;;;4.17;2.70;;;;;;;;;;4996308;28;20313;-76
2022/04/12 07:37:03;;;;;;;3.57;2.70;;;;;;;;;;4990924;28;20221;-76
2022/04/12 07:39:29;;;;;;;2.90;2.57;;;;;;;;;;5014963;28;20757;-76
2022/04/12 07:41:54;;;;;;;5.73;2.60;;;;;;;;;;5013559;28;20227;-77
2022/04/12 07:44:22;;;;;;;4.33;2.53;;;;;;;;;;4996019;28;20275;-77
2022/04/12 07:46:50;;;;;;;4.80;2.90;;;;;;;;;;4980499;28;20296;-76
2022/04/12 07:49:17;;;;;;;4.07;2.30;;;;;;;;;;4995578;28;20236;-78
2022/04/12 07:51:46;;;;;;;2.97;2.30;;;;;;;;;;5000446;28;20255;-77
2022/04/12 07:54:14;;;;;;;3.07;2.20;;;;;;;;;;5029879;28;20243;-76
2022/04/12 07:56:40;;;;;;;5.37;2.53;;;;;;;;;;5029325;28;20225;-76
2022/04/12 07:59:09;;;;;;;3.27;2.20;;;;;;;;;;5022707;28;20636;-76
2022/04/12 08:01:34;;;;;;;3.87;2.40;;;;;;;;;;5025709;28;20299;-76
2022/04/12 08:04:02;;;;;;;17.07;4.00;;;;;;;;;;5010207;28;20225;-77
2022/04/12 08:06:29;;;;;;;5.17;2.70;;;;;;;;;;5023392;28;20287;-76
2022/04/12 08:08:55;;;;;;;4.37;2.60;;;;;;;;;;5022175;28;20229;-76
2022/04/12 08:11:22;;;;;;;2.93;2.20;;;;;;;;;;5020454;28;20308;-77
2022/04/12 08:13:48;;;;;;;2.83;2.20;;;;;;;;;;5017004;28;20316;-76
2022/04/12 08:16:15;;;;;;;3.07;2.20;;;;;;;;;;5011499;28;20227;-76
2022/04/12 08:18:45;;;;;;;2.90;1.97;;;;;;;;;;5014996;28;20304;-77
2022/04/12 08:21:13;;;;;;;3.67;2.17;;;;;;;;;;5007985;28;20860;-78
2022/04/12 08:23:39;;;;;;;3.10;2.00;;;;;;;;;;4985271;28;20228;-77
2022/04/12 08:26:04;;;;;;;2.87;2.00;;;;;;;;;;4998297;28;20224;-75
2022/04/12 08:28:32;;;;;;;3.10;2.00;;;;;;;;;;5019513;28;20311;-75
2022/04/12 08:30:58;;;;;;;2.57;1.57;;;;;;;;;;5001777;28;20217;-77
2022/04/12 08:33:25;;;;;;;2.90;2.00;;;;;;;;;;4999199;28;20224;-77
2022/04/12 08:35:52;;;;;;;3.20;1.90;;;;;;;;;;5007378;28;20271;-77
2022/04/12 08:38:17;;;;;;;3.00;1.90;;;;;;;;;;5012530;28;20234;-78
2022/04/12 08:40:45;;;;;;;2.83;1.90;;;;;;;;;;5018347;28;20280;-76
2022/04/12 08:43:15;;;;;;;2.00;1.77;;;;;;;;;;4998569;28;20249;-76
2022/04/12 08:45:40;;;;;;;3.03;1.90;;;;;;;;;;5015767;28;20225;-77
2022/04/12 08:48:06;;;;;;;2.43;1.70;;;;;;;;;;4996848;28;20228;-78
2022/04/12 08:50:37;;;;;;;3.10;1.60;;;;;;;;;;5030456;28;20216;-77
2022/04/12 08:53:03;;;;;;;2.17;1.60;;;;;;;;;;5009642;28;20213;-76
2022/04/12 08:55:28;;;;;;;2.33;1.50;;;;;;;;;;5005045;28;20228;-77
2022/04/12 08:57:54;;;;;;;2.20;1.60;;;;;;;;;;4965187;28;20234;-76
2022/04/12 09:00:19;;;;;;;3.90;1.60;;;;;;;;;;5012102;28;20289;-77
2022/04/12 09:02:53;;;;;;;2.30;1.60;;;;;;;;;;5002691;28;20233;-77
2022/04/12 09:05:20;;;;;;;2.97;1.90;;;;;;;;;;4992705;28;20439;-77
2022/04/12 09:07:47;;;;;;;3.03;1.77;;;;;;;;;;5004984;28;20221;-77
2022/04/12 09:10:13;;;;;;;3.17;1.67;;;;;;;;;;4989990;28;20228;-76
2022/04/12 09:12:41;;;;;;;1.73;1.60;;;;;;;;;;4995925;28;20248;-77
2022/04/12 09:15:10;;;;;;;3.72;1.85;;;;;;;;;;5002881;28;20942;-77
2022/04/12 09:17:36;;;;;;;3.43;1.50;;;;;;;;;;4995523;28;20232;-77
2022/04/12 09:20:22;;;;;;;2.50;1.77;;;;;;;;;;4993503;28;20852;-77
2022/04/12 09:22:48;;;;;;;1.67;1.50;;;;;;;;;;5021685;28;20233;-77
2022/04/12 09:25:19;;;;;;;2.33;1.47;;;;;;;;;;4988078;28;20226;-76
2022/04/12 09:27:48;;;;;;;1.73;1.37;;;;;;;;;;4999527;28;20237;-76
2022/04/12 09:30:16;;;;;;;2.03;1.60;;;;;;;;;;4959771;28;20228;-78
2022/04/12 09:32:50;;;;;;;1.90;1.35;;;;;;;;;;4977387;28;20213;-77
2022/04/12 09:35:18;;;;;;;2.78;1.50;;;;;;;;;;4983435;28;20218;-79
2022/04/12 09:37:46;;;;;;;2.15;1.67;;;;;;;;;;4977575;28;20230;-77
2022/04/12 09:40:20;;;;;;;2.45;1.52;;;;;;;;;;4998117;28;20287;-78
2022/04/12 09:42:55;;;;;;;1.63;1.35;;;;;;;;;;5013879;28;20270;-77
2022/04/12 09:45:25;;;;;;;3.50;1.50;;;;;;;;;;4989799;28;20311;-76
2022/04/12 09:47:54;;;;;;;2.35;1.65;;;;;;;;;;4987150;28;20315;-77
2022/04/12 09:50:20;;;;;;;2.58;1.70;;;;;;;;;;5020278;28;20249;-77
2022/04/12 09:52:56;;;;;;;2.20;1.40;;;;;;;;;;5004077;28;20285;-76
2022/04/12 09:55:33;;;;;;;2.13;1.45;;;;;;;;;;4980627;28;21310;-78
2022/04/12 09:58:00;;;;;;;3.88;1.90;;;;;;;;;;5005719;28;20224;-78
2022/04/12 10:00:25;;;;;;;3.10;1.80;;;;;;;;;;5004461;28;20249;-78
2022/04/12 10:02:51;;;;;;;2.30;1.63;;;;;;;;;;4989205;28;20249;-78
2022/04/12 10:05:17;;;;;;;3.95;1.90;;;;;;;;;;4957365;28;20213;-77
2022/04/12 10:07:42;;;;;;;3.58;1.77;;;;;;;;;;5009147;28;20734;-77
2022/04/12 10:10:09;;;;;;;2.70;2.22;;;;;;;;;;4974064;28;22162;-77
2022/04/12 10:12:36;;;;;;;2.45;1.83;;;;;;;;;;4996278;28;20705;-79
2022/04/12 10:15:08;;;;;;;2.60;1.92;;;;;;;;;;5007423;28;20225;-77
2022/04/12 10:17:36;;;;;;;3.22;2.00;;;;;;;;;;5010434;28;20229;-77
2022/04/12 10:20:05;;;;;;;1.77;1.60;;;;;;;;;;5009293;28;20208;-78
2022/04/12 10:22:37;;;;;;;4.35;1.70;;;;;;;;;;5027745;28;20483;-79
2022/04/12 10:25:03;;;;;;;2.75;1.83;;;;;;;;;;4997557;28;20577;-78
2022/04/12 10:27:31;;;;;;;2.55;1.83;;;;;;;;;;5015805;28;20221;-78
2022/04/12 10:30:15;;;;;;;2.22;1.60;;;;;;;;;;5024268;28;20281;-77
2022/04/12 10:33:00;;;;;;;2.10;1.90;;;;;;;;;;5026445;28;20205;-78
2022/04/12 10:35:48;;;;;;;2.17;1.95;;;;;;;;;;4995298;28;20285;-78
2022/04/12 10:38:15;;;;;;;2.88;2.10;;;;;;;;;;5010452;28;20228;-78
2022/04/12 10:40:52;;;;;;;2.58;2.08;;;;;;;;;;4997852;28;20198;-79
2022/04/12 10:43:24;;;;;;;4.72;2.30;;;;;;;;;;5018496;28;20229;-79
2022/04/12 10:46:06;;;;;;;3.75;2.17;;;;;;;;;;5034107;28;20327;-79
2022/04/12 10:48:31;;;;;;;2.67;2.30;;;;;;;;;;5010655;28;20271;-79
2022/04/12 10:51:04;;;;;;;3.00;2.58;;;;;;;;;;5011289;28;20225;-80
2022/04/12 10:53:38;;;;;;;4.88;2.47;;;;;;;;;;5001543;28;20221;-77
2022/04/12 10:56:13;;;;;;;3.38;2.10;;;;;;;;;;5017164;28;20229;-79
2022/04/12 10:58:43;;;;;;;3.05;2.50;;;;;;;;;;4973562;28;20240;-78
2022/04/12 11:01:29;;;;;;;2.53;1.98;;;;;;;;;;5000809;28;20220;-78
2022/04/12 11:04:01;;;;;;;4.40;1.98;;;;;;;;;;5002006;28;20264;-79
2022/04/12 11:06:33;;;;;;;2.90;2.00;;;;;;;;;;4996958;28;20225;-77
2022/04/12 11:09:11;;;;;;;2.30;2.10;;;;;;;;;;5023016;28;20231;-77
2022/04/12 11:11:48;;;;;;;1.80;1.70;;;;;;;;;;5040584;28;20242;-78
2022/04/12 11:14:24;;;;;;;2.53;2.33;;;;;;;;;;5016226;28;20231;-78
2022/04/12 11:16:53;;;;;;;3.10;1.80;;;;;;;;;;5039547;28;20235;-78
2022/04/12 11:19:22;;;;;;;3.47;2.20;;;;;;;;;;5011928;28;20229;-78
2022/04/12 11:21:57;;;;;;;2.63;2.03;;;;;;;;;;5006698;28;20220;-78
2022/04/12 11:24:25;;;;;;;5.35;2.22;;;;;;;;;;5015720;28;20352;-80
2022/04/12 11:29:33;;;;;;;3.63;2.30;;;;;;;;;;4996346;28;20248;-80
2022/04/12 11:32:00;;;;;;;3.90;2.20;;;;;;;;;;4993006;28;20230;-81
2022/04/12 11:34:28;;;;;;;2.70;1.80;;;;;;;;;;5001803;28;20214;-81
2022/04/12 11:37:01;;;;;;;2.40;2.00;;;;;;;;;;5001932;28;20257;-81
2022/04/12 11:39:27;;;;;;;2.90;2.20;;;;;;;;;;4997092;28;20256;-81
2022/04/12 11:41:57;;;;;;;3.55;2.30;;;;;;;;;;4970935;28;20243;-81
2022/04/12 11:44:26;;;;;;;2.58;2.10;;;;;;;;;;5003097;28;20229;-82
2022/04/12 11:47:01;;;;;;;4.28;2.22;;;;;;;;;;4991039;28;20232;-80
2022/04/12 11:49:31;;;;;;;3.03;1.92;;;;;;;;;;4985196;28;20264;-82
2022/04/12 11:51:59;;;;;;;2.40;2.20;;;;;;;;;;4997949;28;20229;-79
2022/04/12 11:54:25;;;;;;;2.30;2.10;;;;;;;;;;5000849;28;20217;-81
2022/04/12 11:57:07;;;;;;;3.00;1.92;;;;;;;;;;4992242;28;20213;-82
2022/04/12 11:59:37;;;;;;;2.63;2.10;;;;;;;;;;4979281;28;20674;-81
2022/04/12 12:02:04;;;;;;;2.40;2.10;;;;;;;;;;4984032;28;20225;-80
2022/04/12 12:04:31;;;;;;;3.13;2.45;;;;;;;;;;4986032;28;20229;-77
2022/04/12 12:07:20;;;;;;;2.20;2.00;;;;;;;;;;4969932;28;20264;-79
2022/04/12 12:09:58;;;;;;;2.58;2.10;;;;;;;;;;4976741;28;20221;-78
2022/04/12 12:12:30;;;;;;;2.67;2.47;;;;;;;;;;4995107;28;20225;-79
2022/04/12 12:14:55;;;;;;;4.07;2.72;;;;;;;;;;4977192;28;20225;-78
2022/04/12 12:17:21;;;;;;;3.38;2.20;;;;;;;;;;4971051;28;20465;-79
2022/04/12 12:19:46;;;;;;;5.20;3.70;;;;;;;;;;4986003;28;20223;-79
2022/04/12 12:22:15;;;;;;;3.83;3.00;;;;;;;;;;4981975;28;20225;-79
2022/04/12 12:24:51;;;;;;;3.60;2.78;;;;;;;;;;4987045;28;20256;-79
2022/04/12 12:27:30;;;;;;;3.72;3.13;;;;;;;;;;4967802;28;20223;-81
2022/04/12 12:30:05;;;;;;;5.32;4.82;;;;;;;;;;4975780;28;20240;-78
2022/04/12 12:32:35;;;;;;;9.65;8.68;;;;;;;;;;4985050;28;20225;-80
2022/04/12 12:35:04;;;;;;;4.47;3.17;;;;;;;;;;4971508;28;20230;-80
2022/04/12 12:37:32;;;;;;;2.85;2.45;;;;;;;;;;4978609;28;20241;-79
2022/04/12 12:39:58;;;;;;;3.08;2.78;;;;;;;;;;4999550;28;20232;-79
2022/04/12 12:42:23;;;;;;;7.28;2.92;;;;;;;;;;4965648;28;20225;-78
2022/04/12 12:44:49;;;;;;;4.07;2.58;;;;;;;;;;4981773;28;20245;-79
2022/04/12 12:47:21;;;;;;;3.38;2.50;;;;;;;;;;4971708;28;20361;-78
2022/04/12 12:49:46;;;;;;;2.53;2.30;;;;;;;;;;4993712;28;20315;-79
2022/04/12 12:52:14;;;;;;;2.60;2.40;;;;;;;;;;4965548;28;20222;-81
2022/04/12 12:54:53;;;;;;;2.97;2.60;;;;;;;;;;5003078;28;20218;-77
2022/04/12 12:57:36;;;;;;;4.68;3.30;;;;;;;;;;4992189;28;20236;-81
2022/04/12 13:00:07;;;;;;;2.53;2.30;;;;;;;;;;4999001;28;20240;-80
2022/04/12 13:02:35;;;;;;;3.30;2.65;;;;;;;;;;4988931;28;20233;-80
2022/04/12 13:05:05;;;;;;;4.00;2.92;;;;;;;;;;4992536;28;20235;-82
2022/04/12 13:07:35;;;;;;;2.67;2.42;;;;;;;;;;4987823;28;20228;-78
2022/04/12 13:10:08;;;;;;;3.28;2.67;;;;;;;;;;4984516;28;20217;-80
2022/04/12 13:12:33;;;;;;;3.55;3.25;;;;;;;;;;4996543;28;20665;-79
2022/04/12 13:14:59;;;;;;;4.13;2.40;;;;;;;;;;4983825;28;20221;-78
2022/04/12 13:17:56;;;;;;;3.10;2.20;;;;;;;;;;4997608;28;20225;-78
2022/04/12 13:20:23;;;;;;;2.60;2.40;;;;;;;;;;5000219;28;20217;-77
2022/04/12 13:22:51;;;;;;;2.97;2.25;;;;;;;;;;4975972;23;20311;-81
2022/04/12 13:25:19;;;;;;;3.08;2.55;;;;;;;;;;4968424;28;20218;-78
2022/04/12 13:27:51;;;;;;;3.00;2.20;;;;;;;;;;4971209;28;20285;-78
2022/04/12 13:30:16;;;;;;;2.63;2.05;;;;;;;;;;4991344;28;20284;-79
2022/04/12 13:32:45;;;;;;;4.93;2.50;;;;;;;;;;5004816;28;20224;-80
2022/04/12 13:35:18;;;;;;;6.20;4.85;;;;;;;;;;5008238;28;20213;-79
2022/04/12 13:37:44;;;;;;;13.73;10.68;;;;;;;;;;4996068;28;20221;-78
2022/04/12 13:40:10;;;;;;;5.50;3.70;;;;;;;;;;4990046;28;20243;-79
2022/04/12 13:42:36;;;;;;;2.88;2.50;;;;;;;;;;4975967;28;20229;-79
2022/04/12 13:45:02;;;;;;;4.90;3.10;;;;;;;;;;4991562;28;20220;-79
2022/04/12 13:47:27;;;;;;;3.53;2.70;;;;;;;;;;4992987;28;20236;-80
2022/04/12 13:49:53;;;;;;;4.65;2.80;;;;;;;;;;4991722;28;20320;-79
2022/04/12 13:52:21;;;;;;;4.38;2.60;;;;;;;;;;4984179;28;20245;-79
2022/04/12 13:54:48;;;;;;;5.57;3.53;;;;;;;;;;4990436;28;20260;-78
2022/04/12 13:58:01;;;;;;;4.97;3.53;;;;;;;;;;4992538;28;20221;-79
2022/04/12 14:00:38;;;;;;;3.83;2.70;;;;;;;;;;5014779;28;20213;-81
2022/04/12 14:03:06;;;;;;;4.68;3.40;;;;;;;;;;4994101;28;20233;-83
2022/04/12 14:05:32;;;;;;;3.35;3.05;;;;;;;;;;4976556;28;20222;-83
2022/04/12 14:08:26;;;;;;;3.55;2.90;;;;;;;;;;4999439;28;20193;-80
2022/04/12 14:10:52;;;;;;;3.30;3.00;;;;;;;;;;4990742;28;20226;-79
2022/04/12 14:13:44;;;;;;;3.70;3.00;;;;;;;;;;4997521;28;20224;-80
2022/04/12 14:16:12;;;;;;;3.95;2.70;;;;;;;;;;4992428;28;20213;-81
2022/04/12 14:18:53;;;;;;;3.33;2.90;;;;;;;;;;4993016;28;20222;-80
2022/04/12 14:21:18;;;;;;;3.42;2.72;;;;;;;;;;5001307;28;20707;-82
2022/04/12 14:24:16;;;;;;;4.88;2.80;;;;;;;;;;5006941;28;20222;-80
2022/04/12 14:26:41;;;;;;;4.03;2.88;;;;;;;;;;5000650;28;20225;-81
2022/04/12 14:29:09;;;;;;;4.00;3.40;;;;;;;;;;4990227;28;20217;-81
2022/04/12 14:31:40;;;;;;;5.43;3.25;;;;;;;;;;4980904;28;20209;-81
2022/04/12 14:34:08;;;;;;;3.15;2.80;;;;;;;;;;4991023;28;20225;-85
2022/04/12 14:36:34;;;;;;;5.25;3.00;;;;;;;;;;4989526;28;20229;-81
2022/04/12 14:39:00;;;;;;;3.80;2.90;;;;;;;;;;5006919;28;20233;-82
2022/04/12 14:41:25;;;;;;;2.95;2.67;;;;;;;;;;5009752;28;20218;-81
2022/04/12 14:43:54;;;;;;;3.13;2.72;;;;;;;;;;4990043;28;20241;-79
2022/04/12 14:46:23;;;;;;;3.53;2.95;;;;;;;;;;4993207;28;20764;-83
2022/04/12 14:48:48;;;;;;;3.13;2.40;;;;;;;;;;5005811;28;20217;-81
2022/04/12 14:54:11;;;;;;;4.25;2.60;;;;;;;;;;4994835;28;20225;-80
2022/04/12 14:56:51;;;;;;;5.03;2.70;;;;;;;;;;4990771;28;20233;-80
2022/04/12 14:59:28;;;;;;;6.15;4.45;;;;;;;;;;4975743;28;20305;-80